sensor_id;sensor_type;location;lat;lon;timestamp;temperature;humidity
25550;DHT22;13444;50.562;7.262;2023-04-12T00:00:58;10.40;99.90
25550;DHT22;13444;50.562;7.262;2023-04-12T00:03:25;10.50;99.90
25550;DHT22;13444;50.562;7.262;2023-04-12T00:05:51;10.50;99.90
25550;DHT22;13444;50.562;7.262;2023-04-12T00:08:19;10.50;99.90
25550;DHT22;13444;50.562;7.262;2023-04-12T00:10:51;10.50;99.90
25550;DHT22;13444;50.562;7.262;2023-04-12T00:13:17;10.50;99.90
25550;DHT22;13444;50.562;7.262;2023-04-12T00:15:44;10.60;99.90
25550;DHT22;13444;50.562;7.262;2023-04-12T00:18:09;10.60;99.90
25550;DHT22;13444;50.562;7.262;2023-04-12T00:20:35;10.60;99.90
25550;DHT22;13444;50.562;7.262;2023-04-12T00:23:01;10.50;99.90
25550;DHT22;13444;50.562;7.262;2023-04-12T00:25:26;10.50;99.90
25550;DHT22;13444;50.562;7.262;2023-04-12T00:27:52;10.50;99.90
25550;DHT22;13444;50.562;7.262;2023-04-12T00:30:17;10.50;99.90
25550;DHT22;13444;50.562;7.262;2023-04-12T00:32:43;10.40;99.90
25550;DHT22;13444;50.562;7.262;2023-04-12T00:35:09;10.40;99.90
25550;DHT22;13444;50.562;7.262;2023-04-12T00:37:34;10.40;99.90
25550;DHT22;13444;50.562;7.262;2023-04-12T00:40:03;10.40;99.90
25550;DHT22;13444;50.562;7.262;2023-04-12T00:42:31;10.40;99.90
25550;DHT22;13444;50.562;7.262;2023-04-12T00:44:56;10.40;99.90
25550;DHT22;13444;50.562;7.262;2023-04-12T00:47:22;10.30;99.90
25550;DHT22;13444;50.562;7.262;2023-04-12T00:49:47;10.30;99.90
25550;DHT22;13444;50.562;7.262;2023-04-12T00:52:13;10.30;99.90
25550;DHT22;13444;50.562;7.262;2023-04-12T00:54:42;10.20;99.90
25550;DHT22;13444;50.562;7.262;2023-04-12T00:57:08;10.10;99.90
25550;DHT22;13444;50.562;7.262;2023-04-12T00:59:33;10.10;99.90
25550;DHT22;13444;50.562;7.262;2023-04-12T01:01:59;10.10;99.90
25550;DHT22;13444;50.562;7.262;2023-04-12T01:04:26;10.10;99.90
25550;DHT22;13444;50.562;7.262;2023-04-12T01:15:21;9.90;99.90
25550;DHT22;13444;50.562;7.262;2023-04-12T01:18:08;9.90;99.90
25550;DHT22;13444;50.562;7.262;2023-04-12T01:20:43;9.90;99.90
25550;DHT22;13444;50.562;7.262;2023-04-12T01:23:33;9.90;99.90
25550;DHT22;13444;50.562;7.262;2023-04-12T01:28:52;9.80;99.90
25550;DHT22;13444;50.562;7.262;2023-04-12T01:31:19;9.70;99.90
25550;DHT22;13444;50.562;7.262;2023-04-12T01:33:46;9.70;99.90
25550;DHT22;13444;50.562;7.262;2023-04-12T01:36:17;9.60;99.90
25550;DHT22;13444;50.562;7.262;2023-04-12T01:38:43;9.60;99.90
25550;DHT22;13444;50.562;7.262;2023-04-12T01:41:09;9.60;99.90
25550;DHT22;13444;50.562;7.262;2023-04-12T01:43:42;9.50;99.90
25550;DHT22;13444;50.562;7.262;2023-04-12T01:46:09;9.50;99.90
25550;DHT22;13444;50.562;7.262;2023-04-12T01:48:36;9.50;99.90
25550;DHT22;13444;50.562;7.262;2023-04-12T01:51:11;9.50;99.90
25550;DHT22;13444;50.562;7.262;2023-04-12T01:53:49;9.40;99.90
25550;DHT22;13444;50.562;7.262;2023-04-12T01:56:19;9.40;99.90
25550;DHT22;13444;50.562;7.262;2023-04-12T01:58:47;9.40;99.90
25550;DHT22;13444;50.562;7.262;2023-04-12T02:01:16;9.40;99.90
25550;DHT22;13444;50.562;7.262;2023-04-12T02:03:44;9.40;99.90
25550;DHT22;13444;50.562;7.262;2023-04-12T02:06:14;9.30;99.90
25550;DHT22;13444;50.562;7.262;2023-04-12T02:08:40;9.30;99.90
25550;DHT22;13444;50.562;7.262;2023-04-12T02:11:12;9.30;99.90
25550;DHT22;13444;50.562;7.262;2023-04-12T02:13:40;9.30;99.90
25550;DHT22;13444;50.562;7.262;2023-04-12T02:16:06;9.30;99.90
25550;DHT22;13444;50.562;7.262;2023-04-12T02:18:35;9.30;99.90
25550;DHT22;13444;50.562;7.262;2023-04-12T02:21:00;9.30;99.90
25550;DHT22;13444;50.562;7.262;2023-04-12T02:23:26;9.20;99.90
25550;DHT22;13444;50.562;7.262;2023-04-12T02:25:51;9.20;99.90
25550;DHT22;13444;50.562;7.262;2023-04-12T02:28:17;9.20;99.90
25550;DHT22;13444;50.562;7.262;2023-04-12T02:30:42;9.20;99.90
25550;DHT22;13444;50.562;7.262;2023-04-12T02:33:08;9.20;99.90
25550;DHT22;13444;50.562;7.262;2023-04-12T02:35:35;9.20;99.90
25550;DHT22;13444;50.562;7.262;2023-04-12T02:38:01;9.20;99.90
25550;DHT22;13444;50.562;7.262;2023-04-12T02:40:28;9.10;99.90
25550;DHT22;13444;50.562;7.262;2023-04-12T02:42:54;9.10;99.90
25550;DHT22;13444;50.562;7.262;2023-04-12T02:45:20;9.10;99.90
25550;DHT22;13444;50.562;7.262;2023-04-12T02:47:45;9.10;99.90
25550;DHT22;13444;50.562;7.262;2023-04-12T02:50:11;9.10;99.90
25550;DHT22;13444;50.562;7.262;2023-04-12T02:52:36;9.10;99.90
25550;DHT22;13444;50.562;7.262;2023-04-12T02:55:02;9.10;99.90
25550;DHT22;13444;50.562;7.262;2023-04-12T02:57:28;9.10;99.90
25550;DHT22;13444;50.562;7.262;2023-04-12T02:59:53;9.00;99.90
25550;DHT22;13444;50.562;7.262;2023-04-12T03:02:19;9.00;99.90
25550;DHT22;13444;50.562;7.262;2023-04-12T03:04:45;9.00;99.90
25550;DHT22;13444;50.562;7.262;2023-04-12T03:07:16;9.00;99.90
25550;DHT22;13444;50.562;7.262;2023-04-12T03:09:42;9.00;99.90
25550;DHT22;13444;50.562;7.262;2023-04-12T03:12:08;9.00;99.90
25550;DHT22;13444;50.562;7.262;2023-04-12T03:14:34;9.00;99.90
25550;DHT22;13444;50.562;7.262;2023-04-12T03:17:00;9.00;99.90
25550;DHT22;13444;50.562;7.262;2023-04-12T03:19:25;9.00;99.90
25550;DHT22;13444;50.562;7.262;2023-04-12T03:21:51;9.00;99.90
25550;DHT22;13444;50.562;7.262;2023-04-12T03:24:16;9.00;99.90
25550;DHT22;13444;50.562;7.262;2023-04-12T03:26:42;8.90;99.90
25550;DHT22;13444;50.562;7.262;2023-04-12T03:29:08;8.90;99.90
25550;DHT22;13444;50.562;7.262;2023-04-12T03:31:34;8.90;99.90
25550;DHT22;13444;50.562;7.262;2023-04-12T03:34:00;8.90;99.90
25550;DHT22;13444;50.562;7.262;2023-04-12T03:36:26;9.00;99.90
25550;DHT22;13444;50.562;7.262;2023-04-12T03:38:52;9.00;99.90
25550;DHT22;13444;50.562;7.262;2023-04-12T03:41:20;9.00;99.90
25550;DHT22;13444;50.562;7.262;2023-04-12T03:43:46;8.90;99.90
25550;DHT22;13444;50.562;7.262;2023-04-12T03:46:11;8.90;99.90
25550;DHT22;13444;50.562;7.262;2023-04-12T03:48:40;8.90;99.90
25550;DHT22;13444;50.562;7.262;2023-04-12T03:51:06;8.90;99.90
25550;DHT22;13444;50.562;7.262;2023-04-12T03:53:39;9.00;99.90
25550;DHT22;13444;50.562;7.262;2023-04-12T03:56:07;9.00;99.90
25550;DHT22;13444;50.562;7.262;2023-04-12T03:58:34;9.00;99.90
25550;DHT22;13444;50.562;7.262;2023-04-12T04:01:02;9.10;99.90
25550;DHT22;13444;50.562;7.262;2023-04-12T04:03:34;9.10;99.90
25550;DHT22;13444;50.562;7.262;2023-04-12T04:06:00;9.10;99.90
25550;DHT22;13444;50.562;7.262;2023-04-12T04:08:27;9.10;99.90
25550;DHT22;13444;50.562;7.262;2023-04-12T04:10:53;9.10;99.90
25550;DHT22;13444;50.562;7.262;2023-04-12T04:13:19;9.10;99.90
25550;DHT22;13444;50.562;7.262;2023-04-12T04:15:44;9.10;99.90
25550;DHT22;13444;50.562;7.262;2023-04-12T04:18:10;9.10;99.90
25550;DHT22;13444;50.562;7.262;2023-04-12T04:20:36;9.10;99.90
25550;DHT22;13444;50.562;7.262;2023-04-12T04:23:01;9.10;99.90
25550;DHT22;13444;50.562;7.262;2023-04-12T04:25:27;9.10;99.90
25550;DHT22;13444;50.562;7.262;2023-04-12T04:27:55;9.10;99.90
25550;DHT22;13444;50.562;7.262;2023-04-12T04:30:20;9.10;99.90
25550;DHT22;13444;50.562;7.262;2023-04-12T04:32:47;9.10;99.90
25550;DHT22;13444;50.562;7.262;2023-04-12T04:35:14;9.10;99.90
25550;DHT22;13444;50.562;7.262;2023-04-12T04:37:40;9.20;99.90
25550;DHT22;13444;50.562;7.262;2023-04-12T04:40:06;9.20;99.90
25550;DHT22;13444;50.562;7.262;2023-04-12T04:42:38;9.10;99.90
25550;DHT22;13444;50.562;7.262;2023-04-12T04:45:04;9.10;99.90
25550;DHT22;13444;50.562;7.262;2023-04-12T04:47:37;9.10;99.90
25550;DHT22;13444;50.562;7.262;2023-04-12T04:50:03;9.10;99.90
25550;DHT22;13444;50.562;7.262;2023-04-12T04:52:29;9.10;99.90
25550;DHT22;13444;50.562;7.262;2023-04-12T04:54:54;9.10;99.90
25550;DHT22;13444;50.562;7.262;2023-04-12T04:57:22;9.10;99.90
25550;DHT22;13444;50.562;7.262;2023-04-12T04:59:48;9.10;99.90
25550;DHT22;13444;50.562;7.262;2023-04-12T05:02:13;9.10;99.90
25550;DHT22;13444;50.562;7.262;2023-04-12T05:04:40;9.10;99.90
25550;DHT22;13444;50.562;7.262;2023-04-12T05:07:06;9.10;99.90
25550;DHT22;13444;50.562;7.262;2023-04-12T05:09:31;9.10;99.90
25550;DHT22;13444;50.562;7.262;2023-04-12T05:11:57;9.10;99.90
25550;DHT22;13444;50.562;7.262;2023-04-12T05:14:22;9.10;99.90
25550;DHT22;13444;50.562;7.262;2023-04-12T05:16:48;9.10;99.90
25550;DHT22;13444;50.562;7.262;2023-04-12T05:19:13;9.10;99.90
25550;DHT22;13444;50.562;7.262;2023-04-12T05:21:39;9.00;99.90
25550;DHT22;13444;50.562;7.262;2023-04-12T05:24:04;9.00;99.90
25550;DHT22;13444;50.562;7.262;2023-04-12T05:26:30;9.00;99.90
25550;DHT22;13444;50.562;7.262;2023-04-12T05:28:57;9.00;99.90
25550;DHT22;13444;50.562;7.262;2023-04-12T05:31:22;9.00;99.90
25550;DHT22;13444;50.562;7.262;2023-04-12T05:33:48;9.00;99.90
25550;DHT22;13444;50.562;7.262;2023-04-12T05:36:14;8.90;99.90
25550;DHT22;13444;50.562;7.262;2023-04-12T05:38:39;8.90;99.90
25550;DHT22;13444;50.562;7.262;2023-04-12T05:41:05;8.90;99.90
25550;DHT22;13444;50.562;7.262;2023-04-12T05:43:31;8.80;99.90
25550;DHT22;13444;50.562;7.262;2023-04-12T05:45:57;8.90;99.90
25550;DHT22;13444;50.562;7.262;2023-04-12T05:48:23;8.90;99.90
25550;DHT22;13444;50.562;7.262;2023-04-12T05:50:50;8.90;99.90
25550;DHT22;13444;50.562;7.262;2023-04-12T05:53:16;8.80;99.90
25550;DHT22;13444;50.562;7.262;2023-04-12T05:55:41;8.80;99.90
25550;DHT22;13444;50.562;7.262;2023-04-12T05:58:07;8.80;99.90
25550;DHT22;13444;50.562;7.262;2023-04-12T06:00:34;8.80;99.90
25550;DHT22;13444;50.562;7.262;2023-04-12T06:03:00;8.90;99.90
25550;DHT22;13444;50.562;7.262;2023-04-12T06:05:25;8.80;99.90
25550;DHT22;13444;50.562;7.262;2023-04-12T06:07:52;8.80;99.90
25550;DHT22;13444;50.562;7.262;2023-04-12T06:10:17;8.70;99.90
25550;DHT22;13444;50.562;7.262;2023-04-12T06:12:43;8.80;99.90
25550;DHT22;13444;50.562;7.262;2023-04-12T06:15:09;8.80;99.90
25550;DHT22;13444;50.562;7.262;2023-04-12T06:17:35;8.80;99.90
25550;DHT22;13444;50.562;7.262;2023-04-12T06:20:02;8.70;99.90
25550;DHT22;13444;50.562;7.262;2023-04-12T06:22:31;8.70;99.90
25550;DHT22;13444;50.562;7.262;2023-04-12T06:24:57;8.70;99.90
25550;DHT22;13444;50.562;7.262;2023-04-12T06:27:23;8.80;99.90
25550;DHT22;13444;50.562;7.262;2023-04-12T06:29:49;8.70;99.90
25550;DHT22;13444;50.562;7.262;2023-04-12T06:32:15;8.80;99.90
25550;DHT22;13444;50.562;7.262;2023-04-12T06:34:41;8.80;99.90
25550;DHT22;13444;50.562;7.262;2023-04-12T06:37:06;8.80;99.90
25550;DHT22;13444;50.562;7.262;2023-04-12T06:39:32;8.80;99.90
25550;DHT22;13444;50.562;7.262;2023-04-12T06:41:57;8.80;99.90
25550;DHT22;13444;50.562;7.262;2023-04-12T06:44:23;8.80;99.90
25550;DHT22;13444;50.562;7.262;2023-04-12T06:46:51;8.90;99.90
25550;DHT22;13444;50.562;7.262;2023-04-12T06:49:17;8.90;99.90
25550;DHT22;13444;50.562;7.262;2023-04-12T06:51:43;8.90;99.90
25550;DHT22;13444;50.562;7.262;2023-04-12T06:54:08;8.90;99.90
25550;DHT22;13444;50.562;7.262;2023-04-12T06:56:36;8.90;99.90
25550;DHT22;13444;50.562;7.262;2023-04-12T06:59:02;9.00;99.90
25550;DHT22;13444;50.562;7.262;2023-04-12T07:01:28;9.10;99.90
25550;DHT22;13444;50.562;7.262;2023-04-12T07:03:53;9.10;99.90
25550;DHT22;13444;50.562;7.262;2023-04-12T07:06:19;9.10;99.90
25550;DHT22;13444;50.562;7.262;2023-04-12T07:08:45;9.10;99.90
25550;DHT22;13444;50.562;7.262;2023-04-12T07:11:10;9.00;99.90
25550;DHT22;13444;50.562;7.262;2023-04-12T07:13:36;9.00;99.90
25550;DHT22;13444;50.562;7.262;2023-04-12T07:16:01;9.10;99.90
25550;DHT22;13444;50.562;7.262;2023-04-12T07:18:27;9.10;99.90
25550;DHT22;13444;50.562;7.262;2023-04-12T07:20:54;9.10;99.90
25550;DHT22;13444;50.562;7.262;2023-04-12T07:23:21;9.10;99.90
25550;DHT22;13444;50.562;7.262;2023-04-12T07:25:47;9.10;99.90
25550;DHT22;13444;50.562;7.262;2023-04-12T07:28:12;9.10;99.90
25550;DHT22;13444;50.562;7.262;2023-04-12T07:30:38;9.10;99.90
25550;DHT22;13444;50.562;7.262;2023-04-12T07:33:05;9.20;99.90
25550;DHT22;13444;50.562;7.262;2023-04-12T07:35:31;9.50;99.90
25550;DHT22;13444;50.562;7.262;2023-04-12T07:37:57;9.50;99.90
25550;DHT22;13444;50.562;7.262;2023-04-12T07:40:23;9.40;99.90
25550;DHT22;13444;50.562;7.262;2023-04-12T07:42:49;9.30;99.90
25550;DHT22;13444;50.562;7.262;2023-04-12T07:45:14;9.30;99.90
25550;DHT22;13444;50.562;7.262;2023-04-12T07:47:40;9.30;99.90
25550;DHT22;13444;50.562;7.262;2023-04-12T07:50:06;9.30;99.90
25550;DHT22;13444;50.562;7.262;2023-04-12T07:52:31;9.30;99.90
25550;DHT22;13444;50.562;7.262;2023-04-12T07:54:57;9.30;99.90
25550;DHT22;13444;50.562;7.262;2023-04-12T07:57:23;9.30;99.90
25550;DHT22;13444;50.562;7.262;2023-04-12T07:59:49;9.30;99.90
25550;DHT22;13444;50.562;7.262;2023-04-12T08:02:14;9.40;99.90
25550;DHT22;13444;50.562;7.262;2023-04-12T08:04:52;9.40;99.90
25550;DHT22;13444;50.562;7.262;2023-04-12T08:07:17;9.40;99.90
25550;DHT22;13444;50.562;7.262;2023-04-12T08:09:43;9.40;99.90
25550;DHT22;13444;50.562;7.262;2023-04-12T08:12:09;9.50;99.90
25550;DHT22;13444;50.562;7.262;2023-04-12T08:14:34;9.40;99.90
25550;DHT22;13444;50.562;7.262;2023-04-12T08:17:00;9.50;99.90
25550;DHT22;13444;50.562;7.262;2023-04-12T08:19:25;9.50;99.90
25550;DHT22;13444;50.562;7.262;2023-04-12T08:21:52;9.50;99.90
25550;DHT22;13444;50.562;7.262;2023-04-12T08:24:17;9.60;99.90
25550;DHT22;13444;50.562;7.262;2023-04-12T08:26:44;9.60;99.90
25550;DHT22;13444;50.562;7.262;2023-04-12T08:29:10;9.60;99.90
25550;DHT22;13444;50.562;7.262;2023-04-12T08:31:36;9.60;99.90
25550;DHT22;13444;50.562;7.262;2023-04-12T08:34:02;9.60;99.90
25550;DHT22;13444;50.562;7.262;2023-04-12T08:36:27;9.70;99.90
25550;DHT22;13444;50.562;7.262;2023-04-12T08:38:57;9.70;99.90
25550;DHT22;13444;50.562;7.262;2023-04-12T08:41:23;9.80;99.90
25550;DHT22;13444;50.562;7.262;2023-04-12T08:43:50;9.80;99.90
25550;DHT22;13444;50.562;7.262;2023-04-12T08:46:16;9.90;99.90
25550;DHT22;13444;50.562;7.262;2023-04-12T08:48:46;10.00;99.90
25550;DHT22;13444;50.562;7.262;2023-04-12T08:51:13;10.10;99.90
25550;DHT22;13444;50.562;7.262;2023-04-12T08:53:40;10.20;99.90
25550;DHT22;13444;50.562;7.262;2023-04-12T08:56:10;10.20;99.90
25550;DHT22;13444;50.562;7.262;2023-04-12T08:58:48;10.30;99.90
25550;DHT22;13444;50.562;7.262;2023-04-12T09:01:16;10.30;99.90
25550;DHT22;13444;50.562;7.262;2023-04-12T09:03:43;10.30;99.90
25550;DHT22;13444;50.562;7.262;2023-04-12T09:06:09;10.40;99.90
25550;DHT22;13444;50.562;7.262;2023-04-12T09:08:35;10.40;99.90
25550;DHT22;13444;50.562;7.262;2023-04-12T09:11:01;10.40;99.90
25550;DHT22;13444;50.562;7.262;2023-04-12T09:13:34;10.40;99.90
25550;DHT22;13444;50.562;7.262;2023-04-12T09:16:01;10.40;99.90
25550;DHT22;13444;50.562;7.262;2023-04-12T09:18:28;10.40;99.90
25550;DHT22;13444;50.562;7.262;2023-04-12T09:21:06;10.50;99.90
25550;DHT22;13444;50.562;7.262;2023-04-12T09:23:32;10.50;99.90
25550;DHT22;13444;50.562;7.262;2023-04-12T09:26:00;10.60;99.90
25550;DHT22;13444;50.562;7.262;2023-04-12T09:28:27;10.60;99.90
25550;DHT22;13444;50.562;7.262;2023-04-12T09:30:55;10.70;99.90
25550;DHT22;13444;50.562;7.262;2023-04-12T09:33:35;10.70;99.90
25550;DHT22;13444;50.562;7.262;2023-04-12T09:36:02;10.80;99.90
25550;DHT22;13444;50.562;7.262;2023-04-12T09:38:29;10.90;99.90
25550;DHT22;13444;50.562;7.262;2023-04-12T09:40:56;10.90;99.90
25550;DHT22;13444;50.562;7.262;2023-04-12T09:43:37;11.10;99.90
25550;DHT22;13444;50.562;7.262;2023-04-12T09:46:11;11.20;99.90
25550;DHT22;13444;50.562;7.262;2023-04-12T09:48:38;11.30;99.90
25550;DHT22;13444;50.562;7.262;2023-04-12T09:51:08;11.40;99.90
25550;DHT22;13444;50.562;7.262;2023-04-12T09:53:34;11.40;99.90
25550;DHT22;13444;50.562;7.262;2023-04-12T09:56:02;11.40;99.90
25550;DHT22;13444;50.562;7.262;2023-04-12T09:58:28;11.40;99.90
25550;DHT22;13444;50.562;7.262;2023-04-12T10:00:55;11.20;99.90
25550;DHT22;13444;50.562;7.262;2023-04-12T10:03:23;11.30;99.90
25550;DHT22;13444;50.562;7.262;2023-04-12T10:05:48;11.30;99.90
25550;DHT22;13444;50.562;7.262;2023-04-12T10:08:14;11.30;99.90
25550;DHT22;13444;50.562;7.262;2023-04-12T10:10:43;11.30;99.90
25550;DHT22;13444;50.562;7.262;2023-04-12T10:13:11;11.30;99.90
25550;DHT22;13444;50.562;7.262;2023-04-12T10:15:38;11.30;99.90
25550;DHT22;13444;50.562;7.262;2023-04-12T10:18:05;11.30;99.90
25550;DHT22;13444;50.562;7.262;2023-04-12T10:20:31;11.30;99.90
25550;DHT22;13444;50.562;7.262;2023-04-12T10:22:57;11.40;99.90
25550;DHT22;13444;50.562;7.262;2023-04-12T10:25:27;11.40;99.90
25550;DHT22;13444;50.562;7.262;2023-04-12T10:27:55;11.50;99.90
25550;DHT22;13444;50.562;7.262;2023-04-12T10:33:33;11.70;99.90
25550;DHT22;13444;50.562;7.262;2023-04-12T10:35:56;11.70;99.90
25550;DHT22;13444;50.562;7.262;2023-04-12T10:38:23;11.80;99.90
25550;DHT22;13444;50.562;7.262;2023-04-12T10:41:19;11.80;99.90
25550;DHT22;13444;50.562;7.262;2023-04-12T10:43:49;11.80;99.90
25550;DHT22;13444;50.562;7.262;2023-04-12T10:49:10;12.00;99.90
25550;DHT22;13444;50.562;7.262;2023-04-12T10:51:36;12.00;99.90
25550;DHT22;13444;50.562;7.262;2023-04-12T10:56:39;12.30;99.90
25550;DHT22;13444;50.562;7.262;2023-04-12T10:59:06;12.40;99.90
25550;DHT22;13444;50.562;7.262;2023-04-12T11:01:32;12.50;99.90
25550;DHT22;13444;50.562;7.262;2023-04-12T11:04:17;12.60;99.90
25550;DHT22;13444;50.562;7.262;2023-04-12T11:11:55;13.20;99.90
25550;DHT22;13444;50.562;7.262;2023-04-12T11:14:26;13.30;99.90
25550;DHT22;13444;50.562;7.262;2023-04-12T11:19:35;13.30;99.90
25550;DHT22;13444;50.562;7.262;2023-04-12T11:22:03;13.30;99.90
25550;DHT22;13444;50.562;7.262;2023-04-12T11:24:29;13.20;99.90
25550;DHT22;13444;50.562;7.262;2023-04-12T11:26:56;13.20;99.90
25550;DHT22;13444;50.562;7.262;2023-04-12T11:29:28;13.20;99.90
25550;DHT22;13444;50.562;7.262;2023-04-12T11:31:53;13.20;99.90
25550;DHT22;13444;50.562;7.262;2023-04-12T11:34:21;13.10;99.90
25550;DHT22;13444;50.562;7.262;2023-04-12T11:36:51;13.10;99.90
25550;DHT22;13444;50.562;7.262;2023-04-12T11:39:17;13.10;99.90
25550;DHT22;13444;50.562;7.262;2023-04-12T11:41:44;13.20;99.90
25550;DHT22;13444;50.562;7.262;2023-04-12T11:44:09;13.20;99.90
25550;DHT22;13444;50.562;7.262;2023-04-12T11:46:35;13.20;99.90
25550;DHT22;13444;50.562;7.262;2023-04-12T11:49:01;13.20;99.90
25550;DHT22;13444;50.562;7.262;2023-04-12T11:51:26;13.20;99.90
25550;DHT22;13444;50.562;7.262;2023-04-12T11:53:54;13.20;99.90
25550;DHT22;13444;50.562;7.262;2023-04-12T11:56:21;13.00;99.90
25550;DHT22;13444;50.562;7.262;2023-04-12T11:58:47;12.80;99.90
25550;DHT22;13444;50.562;7.262;2023-04-12T12:01:19;12.70;99.90
25550;DHT22;13444;50.562;7.262;2023-04-12T12:03:46;12.60;99.90
25550;DHT22;13444;50.562;7.262;2023-04-12T12:06:14;12.50;99.90
25550;DHT22;13444;50.562;7.262;2023-04-12T12:08:40;12.50;99.90
25550;DHT22;13444;50.562;7.262;2023-04-12T12:11:06;12.40;99.90
25550;DHT22;13444;50.562;7.262;2023-04-12T12:13:52;12.40;99.90
25550;DHT22;13444;50.562;7.262;2023-04-12T12:16:26;12.30;99.90
25550;DHT22;13444;50.562;7.262;2023-04-12T12:18:52;12.30;99.90
25550;DHT22;13444;50.562;7.262;2023-04-12T12:21:18;12.30;99.90
25550;DHT22;13444;50.562;7.262;2023-04-12T12:23:45;12.30;99.90
25550;DHT22;13444;50.562;7.262;2023-04-12T12:26:24;12.40;99.90
25550;DHT22;13444;50.562;7.262;2023-04-12T12:28:51;12.50;99.90
25550;DHT22;13444;50.562;7.262;2023-04-12T12:31:22;12.60;99.90
25550;DHT22;13444;50.562;7.262;2023-04-12T12:33:48;12.80;99.90
25550;DHT22;13444;50.562;7.262;2023-04-12T12:36:18;13.00;99.90
25550;DHT22;13444;50.562;7.262;2023-04-12T12:38:45;13.30;99.90
25550;DHT22;13444;50.562;7.262;2023-04-12T12:41:18;13.40;99.90
25550;DHT22;13444;50.562;7.262;2023-04-12T12:43:48;13.50;99.90
25550;DHT22;13444;50.562;7.262;2023-04-12T12:46:14;13.50;99.90
25550;DHT22;13444;50.562;7.262;2023-04-12T12:48:42;13.60;99.90
25550;DHT22;13444;50.562;7.262;2023-04-12T12:51:08;13.70;99.90
25550;DHT22;13444;50.562;7.262;2023-04-12T12:53:35;13.80;99.90
25550;DHT22;13444;50.562;7.262;2023-04-12T12:56:01;14.00;99.90
25550;DHT22;13444;50.562;7.262;2023-04-12T12:58:27;14.00;99.90
25550;DHT22;13444;50.562;7.262;2023-04-12T13:00:53;14.10;99.90
25550;DHT22;13444;50.562;7.262;2023-04-12T13:03:19;14.10;99.90
25550;DHT22;13444;50.562;7.262;2023-04-12T13:05:44;14.30;99.90
25550;DHT22;13444;50.562;7.262;2023-04-12T13:08:10;14.30;99.90
25550;DHT22;13444;50.562;7.262;2023-04-12T13:10:35;14.30;99.90
25550;DHT22;13444;50.562;7.262;2023-04-12T13:13:02;14.30;99.90
25550;DHT22;13444;50.562;7.262;2023-04-12T13:15:27;14.20;99.90
25550;DHT22;13444;50.562;7.262;2023-04-12T13:17:53;14.20;99.90
25550;DHT22;13444;50.562;7.262;2023-04-12T13:20:20;14.20;99.90
25550;DHT22;13444;50.562;7.262;2023-04-12T13:22:45;14.10;99.90
25550;DHT22;13444;50.562;7.262;2023-04-12T13:25:11;14.10;99.90
25550;DHT22;13444;50.562;7.262;2023-04-12T13:27:36;14.00;99.90
25550;DHT22;13444;50.562;7.262;2023-04-12T13:30:03;13.90;99.90
25550;DHT22;13444;50.562;7.262;2023-04-12T13:32:28;13.90;99.90
25550;DHT22;13444;50.562;7.262;2023-04-12T13:34:54;13.90;99.90
25550;DHT22;13444;50.562;7.262;2023-04-12T13:37:20;13.80;99.90
25550;DHT22;13444;50.562;7.262;2023-04-12T13:39:45;13.80;99.90
25550;DHT22;13444;50.562;7.262;2023-04-12T13:42:11;13.90;99.90
25550;DHT22;13444;50.562;7.262;2023-04-12T13:44:36;13.80;99.90
25550;DHT22;13444;50.562;7.262;2023-04-12T13:47:03;14.00;99.90
25550;DHT22;13444;50.562;7.262;2023-04-12T13:49:28;14.20;99.90
25550;DHT22;13444;50.562;7.262;2023-04-12T13:51:55;14.40;99.90
25550;DHT22;13444;50.562;7.262;2023-04-12T13:54:20;14.40;99.90
25550;DHT22;13444;50.562;7.262;2023-04-12T13:56:46;14.40;99.90
25550;DHT22;13444;50.562;7.262;2023-04-12T13:59:12;14.20;99.90
25550;DHT22;13444;50.562;7.262;2023-04-12T14:01:38;14.20;99.90
25550;DHT22;13444;50.562;7.262;2023-04-12T14:04:05;14.10;99.90
25550;DHT22;13444;50.562;7.262;2023-04-12T14:06:30;14.00;99.90
25550;DHT22;13444;50.562;7.262;2023-04-12T14:08:56;14.10;99.90
25550;DHT22;13444;50.562;7.262;2023-04-12T14:11:22;14.20;99.90
25550;DHT22;13444;50.562;7.262;2023-04-12T14:13:49;14.30;99.90
25550;DHT22;13444;50.562;7.262;2023-04-12T14:16:14;14.40;99.90
25550;DHT22;13444;50.562;7.262;2023-04-12T14:18:40;14.30;99.90
25550;DHT22;13444;50.562;7.262;2023-04-12T14:21:07;14.40;99.90
25550;DHT22;13444;50.562;7.262;2023-04-12T14:23:33;14.30;99.90
25550;DHT22;13444;50.562;7.262;2023-04-12T14:25:58;14.40;99.90
25550;DHT22;13444;50.562;7.262;2023-04-12T14:28:24;14.40;99.90
25550;DHT22;13444;50.562;7.262;2023-04-12T14:30:55;14.50;99.90
25550;DHT22;13444;50.562;7.262;2023-04-12T14:33:21;14.60;99.90
25550;DHT22;13444;50.562;7.262;2023-04-12T14:35:47;14.70;99.90
25550;DHT22;13444;50.562;7.262;2023-04-12T14:38:13;14.70;99.90
25550;DHT22;13444;50.562;7.262;2023-04-12T14:40:38;14.80;99.90
25550;DHT22;13444;50.562;7.262;2023-04-12T14:43:04;14.70;99.90
25550;DHT22;13444;50.562;7.262;2023-04-12T14:45:30;14.70;99.90
25550;DHT22;13444;50.562;7.262;2023-04-12T14:47:56;14.70;99.90
25550;DHT22;13444;50.562;7.262;2023-04-12T14:50:21;14.60;99.90
25550;DHT22;13444;50.562;7.262;2023-04-12T14:52:48;14.60;99.90
25550;DHT22;13444;50.562;7.262;2023-04-12T14:55:14;14.50;99.90
25550;DHT22;13444;50.562;7.262;2023-04-12T14:57:42;14.60;99.90
25550;DHT22;13444;50.562;7.262;2023-04-12T15:00:09;14.60;99.90
25550;DHT22;13444;50.562;7.262;2023-04-12T15:02:38;14.50;99.90
25550;DHT22;13444;50.562;7.262;2023-04-12T15:05:08;14.40;99.90
25550;DHT22;13444;50.562;7.262;2023-04-12T15:07:34;14.40;99.90
25550;DHT22;13444;50.562;7.262;2023-04-12T15:10:00;14.40;99.90
25550;DHT22;13444;50.562;7.262;2023-04-12T15:12:27;14.50;99.90
25550;DHT22;13444;50.562;7.262;2023-04-12T15:14:53;14.60;99.90
25550;DHT22;13444;50.562;7.262;2023-04-12T15:17:25;14.60;99.90
25550;DHT22;13444;50.562;7.262;2023-04-12T15:19:51;14.70;99.90
25550;DHT22;13444;50.562;7.262;2023-04-12T15:22:17;14.70;99.90
25550;DHT22;13444;50.562;7.262;2023-04-12T15:24:42;14.70;99.90
25550;DHT22;13444;50.562;7.262;2023-04-12T15:27:08;14.70;99.90
25550;DHT22;13444;50.562;7.262;2023-04-12T15:29:34;14.70;99.90
25550;DHT22;13444;50.562;7.262;2023-04-12T15:32:00;14.70;99.90
25550;DHT22;13444;50.562;7.262;2023-04-12T15:34:26;14.70;99.90
25550;DHT22;13444;50.562;7.262;2023-04-12T15:36:53;14.60;99.90
25550;DHT22;13444;50.562;7.262;2023-04-12T15:39:19;14.60;99.90
25550;DHT22;13444;50.562;7.262;2023-04-12T15:41:45;14.60;99.90
25550;DHT22;13444;50.562;7.262;2023-04-12T15:44:11;14.40;99.90
25550;DHT22;13444;50.562;7.262;2023-04-12T15:46:41;13.80;99.90
25550;DHT22;13444;50.562;7.262;2023-04-12T15:49:07;13.30;99.90
25550;DHT22;13444;50.562;7.262;2023-04-12T15:51:33;13.00;99.90
25550;DHT22;13444;50.562;7.262;2023-04-12T15:54:02;12.80;99.90
25550;DHT22;13444;50.562;7.262;2023-04-12T15:56:28;12.60;99.90
25550;DHT22;13444;50.562;7.262;2023-04-12T15:58:56;12.50;99.90
25550;DHT22;13444;50.562;7.262;2023-04-12T16:01:41;12.40;99.90
25550;DHT22;13444;50.562;7.262;2023-04-12T16:04:27;12.40;99.90